sensor_id;sensor_type;location;lat;lon;timestamp;temperature;humidity
21582;DHT22;10952;50.836;4.348;2022-12-07T00:01:15;6.90;99.90
21582;DHT22;10952;50.836;4.348;2022-12-07T00:03:42;6.90;99.90
21582;DHT22;10952;50.836;4.348;2022-12-07T00:06:11;7.00;99.90
21582;DHT22;10952;50.836;4.348;2022-12-07T00:08:38;7.10;99.90
21582;DHT22;10952;50.836;4.348;2022-12-07T00:11:09;7.10;99.90
21582;DHT22;10952;50.836;4.348;2022-12-07T00:13:35;7.10;99.90
21582;DHT22;10952;50.836;4.348;2022-12-07T00:16:13;7.00;99.90
21582;DHT22;10952;50.836;4.348;2022-12-07T00:18:40;6.90;99.90
21582;DHT22;10952;50.836;4.348;2022-12-07T00:21:11;6.90;99.90
21582;DHT22;10952;50.836;4.348;2022-12-07T00:23:38;6.80;99.90
21582;DHT22;10952;50.836;4.348;2022-12-07T00:28:50;6.70;99.90
21582;DHT22;10952;50.836;4.348;2022-12-07T00:31:18;6.70;99.90
21582;DHT22;10952;50.836;4.348;2022-12-07T00:33:45;6.60;99.90
21582;DHT22;10952;50.836;4.348;2022-12-07T00:36:13;6.50;99.90
21582;DHT22;10952;50.836;4.348;2022-12-07T00:38:40;6.60;99.90
21582;DHT22;10952;50.836;4.348;2022-12-07T00:41:15;6.50;99.90
21582;DHT22;10952;50.836;4.348;2022-12-07T00:43:43;6.50;99.90
21582;DHT22;10952;50.836;4.348;2022-12-07T00:46:09;6.50;99.90
21582;DHT22;10952;50.836;4.348;2022-12-07T00:48:35;6.40;99.90
21582;DHT22;10952;50.836;4.348;2022-12-07T00:51:02;6.40;99.90
21582;DHT22;10952;50.836;4.348;2022-12-07T00:53:28;6.50;99.90
21582;DHT22;10952;50.836;4.348;2022-12-07T00:55:54;6.50;99.90
21582;DHT22;10952;50.836;4.348;2022-12-07T00:58:21;6.50;99.90
21582;DHT22;10952;50.836;4.348;2022-12-07T01:00:48;6.40;99.90
21582;DHT22;10952;50.836;4.348;2022-12-07T01:03:14;6.40;99.90
21582;DHT22;10952;50.836;4.348;2022-12-07T01:05:51;6.40;99.90
21582;DHT22;10952;50.836;4.348;2022-12-07T01:08:18;6.40;99.90
21582;DHT22;10952;50.836;4.348;2022-12-07T01:10:44;6.40;99.90
21582;DHT22;10952;50.836;4.348;2022-12-07T01:13:09;6.40;99.90
21582;DHT22;10952;50.836;4.348;2022-12-07T01:15:42;6.40;99.90
21582;DHT22;10952;50.836;4.348;2022-12-07T01:18:08;6.30;99.90
21582;DHT22;10952;50.836;4.348;2022-12-07T01:20:34;6.30;99.90
21582;DHT22;10952;50.836;4.348;2022-12-07T01:23:00;6.30;99.90
21582;DHT22;10952;50.836;4.348;2022-12-07T01:25:25;6.30;99.90
21582;DHT22;10952;50.836;4.348;2022-12-07T01:27:51;6.40;99.90
21582;DHT22;10952;50.836;4.348;2022-12-07T01:30:17;6.50;99.90
21582;DHT22;10952;50.836;4.348;2022-12-07T01:32:43;6.50;99.90
21582;DHT22;10952;50.836;4.348;2022-12-07T01:35:09;6.60;99.90
21582;DHT22;10952;50.836;4.348;2022-12-07T01:37:36;6.50;99.90
21582;DHT22;10952;50.836;4.348;2022-12-07T01:40:03;6.50;99.90
21582;DHT22;10952;50.836;4.348;2022-12-07T01:42:29;6.50;99.90
21582;DHT22;10952;50.836;4.348;2022-12-07T01:47:52;6.50;99.90
21582;DHT22;10952;50.836;4.348;2022-12-07T01:50:20;6.50;99.90
21582;DHT22;10952;50.836;4.348;2022-12-07T01:52:49;6.50;99.90
21582;DHT22;10952;50.836;4.348;2022-12-07T01:55:16;6.40;99.90
21582;DHT22;10952;50.836;4.348;2022-12-07T01:57:47;6.40;99.90
21582;DHT22;10952;50.836;4.348;2022-12-07T02:00:14;6.50;99.90
21582;DHT22;10952;50.836;4.348;2022-12-07T02:03:03;6.60;99.90
21582;DHT22;10952;50.836;4.348;2022-12-07T02:05:31;6.40;99.90
21582;DHT22;10952;50.836;4.348;2022-12-07T02:07:58;6.40;99.90
21582;DHT22;10952;50.836;4.348;2022-12-07T02:10:27;6.50;99.90
21582;DHT22;10952;50.836;4.348;2022-12-07T02:13:03;6.50;99.90
21582;DHT22;10952;50.836;4.348;2022-12-07T02:29:25;6.20;99.90
21582;DHT22;10952;50.836;4.348;2022-12-07T02:32:09;6.20;99.90
21582;DHT22;10952;50.836;4.348;2022-12-07T02:37:39;6.40;99.90
21582;DHT22;10952;50.836;4.348;2022-12-07T02:40:19;6.30;99.90
21582;DHT22;10952;50.836;4.348;2022-12-07T02:42:54;6.30;99.90
21582;DHT22;10952;50.836;4.348;2022-12-07T02:45:22;6.40;99.90
21582;DHT22;10952;50.836;4.348;2022-12-07T02:47:53;6.40;99.90
21582;DHT22;10952;50.836;4.348;2022-12-07T02:50:22;6.30;99.90
21582;DHT22;10952;50.836;4.348;2022-12-07T02:52:48;6.30;99.90
21582;DHT22;10952;50.836;4.348;2022-12-07T02:55:16;6.30;99.90
21582;DHT22;10952;50.836;4.348;2022-12-07T03:01:43;6.40;99.90
21582;DHT22;10952;50.836;4.348;2022-12-07T03:03:58;6.40;99.90
21582;DHT22;10952;50.836;4.348;2022-12-07T03:06:34;6.40;99.90
21582;DHT22;10952;50.836;4.348;2022-12-07T03:09:35;6.40;99.90
21582;DHT22;10952;50.836;4.348;2022-12-07T03:12:16;6.30;99.90
21582;DHT22;10952;50.836;4.348;2022-12-07T03:15:00;6.10;99.90
21582;DHT22;10952;50.836;4.348;2022-12-07T03:17:28;6.10;99.90
21582;DHT22;10952;50.836;4.348;2022-12-07T03:19:58;6.10;99.90
21582;DHT22;10952;50.836;4.348;2022-12-07T03:22:28;6.10;99.90
21582;DHT22;10952;50.836;4.348;2022-12-07T03:24:59;6.10;99.90
21582;DHT22;10952;50.836;4.348;2022-12-07T03:27:34;6.10;99.90
21582;DHT22;10952;50.836;4.348;2022-12-07T03:30:08;6.20;99.90
21582;DHT22;10952;50.836;4.348;2022-12-07T03:32:44;6.20;99.90
21582;DHT22;10952;50.836;4.348;2022-12-07T03:35:32;6.20;99.90
21582;DHT22;10952;50.836;4.348;2022-12-07T03:38:18;6.10;99.90
21582;DHT22;10952;50.836;4.348;2022-12-07T03:40:48;6.10;99.90
21582;DHT22;10952;50.836;4.348;2022-12-07T03:43:16;6.10;99.90
21582;DHT22;10952;50.836;4.348;2022-12-07T03:45:44;6.10;99.90
21582;DHT22;10952;50.836;4.348;2022-12-07T03:48:22;6.00;99.90
21582;DHT22;10952;50.836;4.348;2022-12-07T03:51:00;6.00;99.90
21582;DHT22;10952;50.836;4.348;2022-12-07T03:56:09;6.10;99.90
21582;DHT22;10952;50.836;4.348;2022-12-07T03:58:36;6.00;99.90
21582;DHT22;10952;50.836;4.348;2022-12-07T04:01:03;6.00;99.90
21582;DHT22;10952;50.836;4.348;2022-12-07T04:03:28;6.10;99.90
21582;DHT22;10952;50.836;4.348;2022-12-07T04:05:54;6.00;99.90
21582;DHT22;10952;50.836;4.348;2022-12-07T04:08:24;5.90;99.90
21582;DHT22;10952;50.836;4.348;2022-12-07T04:10:50;5.90;99.90
21582;DHT22;10952;50.836;4.348;2022-12-07T04:13:16;6.00;99.90
21582;DHT22;10952;50.836;4.348;2022-12-07T04:15:42;5.80;99.90
21582;DHT22;10952;50.836;4.348;2022-12-07T04:18:07;5.70;99.90
21582;DHT22;10952;50.836;4.348;2022-12-07T04:20:33;5.80;99.90
21582;DHT22;10952;50.836;4.348;2022-12-07T04:22:59;5.80;99.90
21582;DHT22;10952;50.836;4.348;2022-12-07T04:25:25;5.60;99.90
21582;DHT22;10952;50.836;4.348;2022-12-07T04:27:51;5.60;99.90
21582;DHT22;10952;50.836;4.348;2022-12-07T04:30:17;5.60;99.90
21582;DHT22;10952;50.836;4.348;2022-12-07T04:32:43;5.70;99.90
21582;DHT22;10952;50.836;4.348;2022-12-07T04:35:08;5.80;99.90
21582;DHT22;10952;50.836;4.348;2022-12-07T04:37:34;5.80;99.90
21582;DHT22;10952;50.836;4.348;2022-12-07T04:40:00;5.80;99.90
21582;DHT22;10952;50.836;4.348;2022-12-07T04:42:26;5.90;99.90
21582;DHT22;10952;50.836;4.348;2022-12-07T04:44:51;6.00;99.90
21582;DHT22;10952;50.836;4.348;2022-12-07T04:47:17;6.00;99.90
21582;DHT22;10952;50.836;4.348;2022-12-07T04:49:43;6.20;99.90
21582;DHT22;10952;50.836;4.348;2022-12-07T04:52:09;6.20;99.90
21582;DHT22;10952;50.836;4.348;2022-12-07T04:54:34;6.10;99.90
21582;DHT22;10952;50.836;4.348;2022-12-07T04:57:00;6.10;99.90
21582;DHT22;10952;50.836;4.348;2022-12-07T04:59:26;6.10;99.90
21582;DHT22;10952;50.836;4.348;2022-12-07T05:01:52;6.00;99.90
21582;DHT22;10952;50.836;4.348;2022-12-07T05:04:18;6.00;99.90
21582;DHT22;10952;50.836;4.348;2022-12-07T05:06:44;6.00;99.90
21582;DHT22;10952;50.836;4.348;2022-12-07T05:09:10;5.90;99.90
21582;DHT22;10952;50.836;4.348;2022-12-07T05:11:36;5.90;99.90
21582;DHT22;10952;50.836;4.348;2022-12-07T05:14:16;6.00;99.90
21582;DHT22;10952;50.836;4.348;2022-12-07T05:16:43;6.00;99.90
21582;DHT22;10952;50.836;4.348;2022-12-07T05:19:09;5.90;99.90
21582;DHT22;10952;50.836;4.348;2022-12-07T05:21:36;6.00;99.90
21582;DHT22;10952;50.836;4.348;2022-12-07T05:24:02;6.10;99.90
21582;DHT22;10952;50.836;4.348;2022-12-07T05:26:28;6.10;99.90
21582;DHT22;10952;50.836;4.348;2022-12-07T05:28:55;6.10;99.90
21582;DHT22;10952;50.836;4.348;2022-12-07T05:31:21;6.10;99.90
21582;DHT22;10952;50.836;4.348;2022-12-07T05:33:48;6.00;99.90
21582;DHT22;10952;50.836;4.348;2022-12-07T05:36:13;6.00;99.90
21582;DHT22;10952;50.836;4.348;2022-12-07T05:38:39;6.10;99.90
21582;DHT22;10952;50.836;4.348;2022-12-07T05:41:06;6.10;99.90
21582;DHT22;10952;50.836;4.348;2022-12-07T05:43:33;6.00;99.90
21582;DHT22;10952;50.836;4.348;2022-12-07T05:45:59;6.10;99.90
21582;DHT22;10952;50.836;4.348;2022-12-07T05:48:25;6.10;99.90
21582;DHT22;10952;50.836;4.348;2022-12-07T05:50:51;6.00;99.90
21582;DHT22;10952;50.836;4.348;2022-12-07T05:53:17;6.00;99.90
21582;DHT22;10952;50.836;4.348;2022-12-07T05:55:43;6.10;99.90
21582;DHT22;10952;50.836;4.348;2022-12-07T05:58:09;6.00;99.90
21582;DHT22;10952;50.836;4.348;2022-12-07T06:00:56;5.90;99.90
21582;DHT22;10952;50.836;4.348;2022-12-07T06:03:22;6.00;99.90
21582;DHT22;10952;50.836;4.348;2022-12-07T06:05:49;6.00;99.90
21582;DHT22;10952;50.836;4.348;2022-12-07T06:08:15;6.10;99.90
21582;DHT22;10952;50.836;4.348;2022-12-07T06:10:41;6.00;99.90
21582;DHT22;10952;50.836;4.348;2022-12-07T06:13:08;6.00;99.90
21582;DHT22;10952;50.836;4.348;2022-12-07T06:15:37;6.10;99.90
21582;DHT22;10952;50.836;4.348;2022-12-07T06:18:03;6.10;99.90
21582;DHT22;10952;50.836;4.348;2022-12-07T06:20:29;6.10;99.90
21582;DHT22;10952;50.836;4.348;2022-12-07T06:22:55;6.10;99.90
21582;DHT22;10952;50.836;4.348;2022-12-07T06:25:21;6.10;99.90
21582;DHT22;10952;50.836;4.348;2022-12-07T06:27:46;6.00;99.90
21582;DHT22;10952;50.836;4.348;2022-12-07T06:30:12;6.00;99.90
21582;DHT22;10952;50.836;4.348;2022-12-07T06:32:38;6.00;99.90
21582;DHT22;10952;50.836;4.348;2022-12-07T06:35:04;6.10;99.90
21582;DHT22;10952;50.836;4.348;2022-12-07T06:37:30;6.10;99.90
21582;DHT22;10952;50.836;4.348;2022-12-07T06:39:56;6.10;99.90
21582;DHT22;10952;50.836;4.348;2022-12-07T06:42:23;6.10;99.90
21582;DHT22;10952;50.836;4.348;2022-12-07T06:44:49;6.10;99.90
21582;DHT22;10952;50.836;4.348;2022-12-07T06:47:15;6.20;99.90
21582;DHT22;10952;50.836;4.348;2022-12-07T06:49:40;6.20;99.90
21582;DHT22;10952;50.836;4.348;2022-12-07T06:52:06;6.30;99.90
21582;DHT22;10952;50.836;4.348;2022-12-07T06:54:32;6.30;99.90
21582;DHT22;10952;50.836;4.348;2022-12-07T06:56:57;6.30;99.90
21582;DHT22;10952;50.836;4.348;2022-12-07T06:59:23;6.40;99.90
21582;DHT22;10952;50.836;4.348;2022-12-07T07:01:49;6.40;99.90
21582;DHT22;10952;50.836;4.348;2022-12-07T07:04:15;6.30;99.90
21582;DHT22;10952;50.836;4.348;2022-12-07T07:06:40;6.20;99.90
21582;DHT22;10952;50.836;4.348;2022-12-07T07:09:06;6.30;99.90
21582;DHT22;10952;50.836;4.348;2022-12-07T07:11:32;6.30;99.90
21582;DHT22;10952;50.836;4.348;2022-12-07T07:13:58;6.30;99.90
21582;DHT22;10952;50.836;4.348;2022-12-07T07:16:28;6.30;99.90
21582;DHT22;10952;50.836;4.348;2022-12-07T07:18:55;6.40;99.90
21582;DHT22;10952;50.836;4.348;2022-12-07T07:21:21;6.50;99.90
21582;DHT22;10952;50.836;4.348;2022-12-07T07:23:47;6.50;99.90
21582;DHT22;10952;50.836;4.348;2022-12-07T07:26:13;6.50;99.90
21582;DHT22;10952;50.836;4.348;2022-12-07T07:28:39;6.40;99.90
21582;DHT22;10952;50.836;4.348;2022-12-07T07:31:05;6.30;99.90
21582;DHT22;10952;50.836;4.348;2022-12-07T07:33:31;6.30;99.90
21582;DHT22;10952;50.836;4.348;2022-12-07T07:35:56;6.20;99.90
21582;DHT22;10952;50.836;4.348;2022-12-07T07:38:22;6.20;99.90
21582;DHT22;10952;50.836;4.348;2022-12-07T07:40:48;6.20;99.90
21582;DHT22;10952;50.836;4.348;2022-12-07T07:43:14;6.30;99.90
21582;DHT22;10952;50.836;4.348;2022-12-07T07:45:40;6.40;99.90
21582;DHT22;10952;50.836;4.348;2022-12-07T07:48:07;6.40;99.90
21582;DHT22;10952;50.836;4.348;2022-12-07T07:50:33;6.50;99.90
21582;DHT22;10952;50.836;4.348;2022-12-07T07:52:59;6.60;99.90
21582;DHT22;10952;50.836;4.348;2022-12-07T07:55:24;6.70;99.90
21582;DHT22;10952;50.836;4.348;2022-12-07T07:57:50;6.50;99.90
21582;DHT22;10952;50.836;4.348;2022-12-07T08:00:17;6.20;99.90
21582;DHT22;10952;50.836;4.348;2022-12-07T08:02:43;6.20;99.90
21582;DHT22;10952;50.836;4.348;2022-12-07T08:05:13;6.20;99.90
21582;DHT22;10952;50.836;4.348;2022-12-07T08:07:39;6.20;99.90
21582;DHT22;10952;50.836;4.348;2022-12-07T08:10:06;6.30;99.90
21582;DHT22;10952;50.836;4.348;2022-12-07T08:12:36;6.40;99.90
21582;DHT22;10952;50.836;4.348;2022-12-07T08:15:02;6.40;99.90
21582;DHT22;10952;50.836;4.348;2022-12-07T08:17:27;6.30;99.90
21582;DHT22;10952;50.836;4.348;2022-12-07T08:19:53;6.30;99.90
21582;DHT22;10952;50.836;4.348;2022-12-07T08:22:18;6.30;99.90
21582;DHT22;10952;50.836;4.348;2022-12-07T08:24:44;6.30;99.90
21582;DHT22;10952;50.836;4.348;2022-12-07T08:27:10;6.20;99.90
21582;DHT22;10952;50.836;4.348;2022-12-07T08:29:36;6.30;99.90
21582;DHT22;10952;50.836;4.348;2022-12-07T08:32:01;6.30;99.90
21582;DHT22;10952;50.836;4.348;2022-12-07T08:34:27;6.30;99.90
21582;DHT22;10952;50.836;4.348;2022-12-07T08:36:53;6.20;99.90
21582;DHT22;10952;50.836;4.348;2022-12-07T08:39:19;6.20;99.90
21582;DHT22;10952;50.836;4.348;2022-12-07T08:41:45;6.20;99.90
21582;DHT22;10952;50.836;4.348;2022-12-07T08:44:10;6.10;99.90
21582;DHT22;10952;50.836;4.348;2022-12-07T08:46:49;6.20;99.90
21582;DHT22;10952;50.836;4.348;2022-12-07T08:49:22;6.20;99.90
21582;DHT22;10952;50.836;4.348;2022-12-07T08:51:49;6.40;99.90
21582;DHT22;10952;50.836;4.348;2022-12-07T08:54:16;6.50;99.90
21582;DHT22;10952;50.836;4.348;2022-12-07T08:56:44;6.50;99.90
21582;DHT22;10952;50.836;4.348;2022-12-07T08:59:12;6.50;99.90
21582;DHT22;10952;50.836;4.348;2022-12-07T09:01:39;6.60;99.90
21582;DHT22;10952;50.836;4.348;2022-12-07T09:04:05;6.70;99.90
21582;DHT22;10952;50.836;4.348;2022-12-07T09:06:31;6.90;99.90
21582;DHT22;10952;50.836;4.348;2022-12-07T09:08:58;6.90;99.90
21582;DHT22;10952;50.836;4.348;2022-12-07T09:11:25;6.90;99.90
21582;DHT22;10952;50.836;4.348;2022-12-07T09:13:51;7.00;99.90
21582;DHT22;10952;50.836;4.348;2022-12-07T09:16:16;7.10;99.90
21582;DHT22;10952;50.836;4.348;2022-12-07T09:18:42;7.20;99.90
21582;DHT22;10952;50.836;4.348;2022-12-07T09:21:09;7.30;99.90
21582;DHT22;10952;50.836;4.348;2022-12-07T09:23:35;7.40;99.90
21582;DHT22;10952;50.836;4.348;2022-12-07T09:26:01;7.40;99.90
21582;DHT22;10952;50.836;4.348;2022-12-07T09:28:27;7.60;99.90
21582;DHT22;10952;50.836;4.348;2022-12-07T09:30:53;7.70;99.90
21582;DHT22;10952;50.836;4.348;2022-12-07T09:33:18;7.60;99.90
21582;DHT22;10952;50.836;4.348;2022-12-07T09:35:48;7.70;99.90
21582;DHT22;10952;50.836;4.348;2022-12-07T09:38:14;7.70;99.90
21582;DHT22;10952;50.836;4.348;2022-12-07T09:40:41;7.80;99.90
21582;DHT22;10952;50.836;4.348;2022-12-07T09:43:17;7.90;99.90
21582;DHT22;10952;50.836;4.348;2022-12-07T09:45:44;8.10;99.90
21582;DHT22;10952;50.836;4.348;2022-12-07T09:48:21;8.10;99.90
21582;DHT22;10952;50.836;4.348;2022-12-07T09:50:48;8.20;99.90
21582;DHT22;10952;50.836;4.348;2022-12-07T09:53:23;8.00;99.90
21582;DHT22;10952;50.836;4.348;2022-12-07T09:55:50;7.80;99.90
21582;DHT22;10952;50.836;4.348;2022-12-07T09:58:26;7.80;99.90
21582;DHT22;10952;50.836;4.348;2022-12-07T10:01:17;7.90;99.90
21582;DHT22;10952;50.836;4.348;2022-12-07T10:03:53;7.90;99.90
21582;DHT22;10952;50.836;4.348;2022-12-07T10:06:19;8.00;99.90
21582;DHT22;10952;50.836;4.348;2022-12-07T10:08:45;8.10;99.90
21582;DHT22;10952;50.836;4.348;2022-12-07T10:11:12;8.10;99.90
21582;DHT22;10952;50.836;4.348;2022-12-07T10:13:43;8.10;99.90
21582;DHT22;10952;50.836;4.348;2022-12-07T10:16:37;7.80;99.90
21582;DHT22;10952;50.836;4.348;2022-12-07T10:24:32;7.70;99.90
21582;DHT22;10952;50.836;4.348;2022-12-07T10:26:59;7.80;99.90
21582;DHT22;10952;50.836;4.348;2022-12-07T10:29:36;7.90;99.90
21582;DHT22;10952;50.836;4.348;2022-12-07T10:34:42;8.30;99.90
21582;DHT22;10952;50.836;4.348;2022-12-07T10:39:51;8.50;99.90
21582;DHT22;10952;50.836;4.348;2022-12-07T10:42:30;8.60;99.90
21582;DHT22;10952;50.836;4.348;2022-12-07T10:45:25;8.60;99.90
21582;DHT22;10952;50.836;4.348;2022-12-07T11:04:50;8.60;99.90
21582;DHT22;10952;50.836;4.348;2022-12-07T11:15:33;8.90;99.90
21582;DHT22;10952;50.836;4.348;2022-12-07T11:21:07;8.90;99.90
21582;DHT22;10952;50.836;4.348;2022-12-07T11:34:26;8.50;99.90
21582;DHT22;10952;50.836;4.348;2022-12-07T11:36:56;8.30;99.90
21582;DHT22;10952;50.836;4.348;2022-12-07T11:39:37;8.20;99.90
21582;DHT22;10952;50.836;4.348;2022-12-07T11:42:27;8.10;99.90
21582;DHT22;10952;50.836;4.348;2022-12-07T11:50:34;8.10;99.90
21582;DHT22;10952;50.836;4.348;2022-12-07T11:58:38;8.20;99.90
21582;DHT22;10952;50.836;4.348;2022-12-07T12:01:18;8.10;99.90
21582;DHT22;10952;50.836;4.348;2022-12-07T12:03:50;8.20;99.90
21582;DHT22;10952;50.836;4.348;2022-12-07T12:06:17;8.30;99.90
21582;DHT22;10952;50.836;4.348;2022-12-07T12:19:34;8.80;99.90
21582;DHT22;10952;50.836;4.348;2022-12-07T12:22:15;8.80;99.90
21582;DHT22;10952;50.836;4.348;2022-12-07T12:24:44;8.60;99.90
21582;DHT22;10952;50.836;4.348;2022-12-07T12:27:26;8.60;99.90
21582;DHT22;10952;50.836;4.348;2022-12-07T12:29:59;8.40;99.90
21582;DHT22;10952;50.836;4.348;2022-12-07T12:32:35;8.30;99.90
21582;DHT22;10952;50.836;4.348;2022-12-07T12:37:54;8.40;99.90
21582;DHT22;10952;50.836;4.348;2022-12-07T12:42:51;8.40;99.90
21582;DHT22;10952;50.836;4.348;2022-12-07T12:45:31;8.30;99.90
21582;DHT22;10952;50.836;4.348;2022-12-07T12:48:00;8.20;99.90
21582;DHT22;10952;50.836;4.348;2022-12-07T12:50:36;8.20;99.90
21582;DHT22;10952;50.836;4.348;2022-12-07T12:58:35;8.40;99.90
21582;DHT22;10952;50.836;4.348;2022-12-07T13:04:01;9.00;99.90
21582;DHT22;10952;50.836;4.348;2022-12-07T13:08:56;9.00;99.90
21582;DHT22;10952;50.836;4.348;2022-12-07T13:11:33;8.90;99.90
21582;DHT22;10952;50.836;4.348;2022-12-07T13:17:03;8.90;99.90
21582;DHT22;10952;50.836;4.348;2022-12-07T13:27:46;9.10;99.90
21582;DHT22;10952;50.836;4.348;2022-12-07T13:30:19;9.20;99.90
21582;DHT22;10952;50.836;4.348;2022-12-07T13:32:56;9.00;99.90
21582;DHT22;10952;50.836;4.348;2022-12-07T13:35:34;9.10;99.90
21582;DHT22;10952;50.836;4.348;2022-12-07T13:38:05;9.30;99.90
21582;DHT22;10952;50.836;4.348;2022-12-07T13:40:31;9.30;99.90
21582;DHT22;10952;50.836;4.348;2022-12-07T13:43:02;9.30;99.90
21582;DHT22;10952;50.836;4.348;2022-12-07T13:45:32;9.10;99.90
21582;DHT22;10952;50.836;4.348;2022-12-07T13:48:33;9.10;99.90
21582;DHT22;10952;50.836;4.348;2022-12-07T13:51:01;8.90;99.90
21582;DHT22;10952;50.836;4.348;2022-12-07T13:53:27;8.80;99.90
21582;DHT22;10952;50.836;4.348;2022-12-07T13:56:00;8.80;99.90
21582;DHT22;10952;50.836;4.348;2022-12-07T13:58:30;8.90;99.90
21582;DHT22;10952;50.836;4.348;2022-12-07T14:00:56;9.00;99.90
21582;DHT22;10952;50.836;4.348;2022-12-07T14:03:31;9.00;99.90
21582;DHT22;10952;50.836;4.348;2022-12-07T14:08:31;8.70;99.90
21582;DHT22;10952;50.836;4.348;2022-12-07T14:10:58;8.40;99.90
21582;DHT22;10952;50.836;4.348;2022-12-07T14:13:29;8.30;99.90
21582;DHT22;10952;50.836;4.348;2022-12-07T14:15:56;8.20;99.90
21582;DHT22;10952;50.836;4.348;2022-12-07T14:18:51;8.10;99.90
21582;DHT22;10952;50.836;4.348;2022-12-07T14:21:19;8.10;99.90
21582;DHT22;10952;50.836;4.348;2022-12-07T14:23:47;8.10;99.90
21582;DHT22;10952;50.836;4.348;2022-12-07T14:26:27;8.20;99.90
21582;DHT22;10952;50.836;4.348;2022-12-07T14:29:06;8.10;99.90
21582;DHT22;10952;50.836;4.348;2022-12-07T14:31:39;8.00;99.90
21582;DHT22;10952;50.836;4.348;2022-12-07T14:34:11;7.90;99.90
21582;DHT22;10952;50.836;4.348;2022-12-07T14:36:37;7.70;99.90
21582;DHT22;10952;50.836;4.348;2022-12-07T14:39:03;7.40;99.90
21582;DHT22;10952;50.836;4.348;2022-12-07T14:41:28;7.30;99.90
21582;DHT22;10952;50.836;4.348;2022-12-07T14:44:13;7.00;99.90
21582;DHT22;10952;50.836;4.348;2022-12-07T14:46:38;7.00;99.90
21582;DHT22;10952;50.836;4.348;2022-12-07T14:49:04;7.00;99.90
21582;DHT22;10952;50.836;4.348;2022-12-07T14:51:31;7.10;99.90
21582;DHT22;10952;50.836;4.348;2022-12-07T14:53:57;6.90;99.90
21582;DHT22;10952;50.836;4.348;2022-12-07T14:56:23;6.70;99.90
21582;DHT22;10952;50.836;4.348;2022-12-07T14:58:48;6.70;99.90
21582;DHT22;10952;50.836;4.348;2022-12-07T15:01:14;6.70;99.90
21582;DHT22;10952;50.836;4.348;2022-12-07T15:03:40;6.80;99.90
21582;DHT22;10952;50.836;4.348;2022-12-07T15:06:06;6.90;99.90
21582;DHT22;10952;50.836;4.348;2022-12-07T15:08:33;6.90;99.90
21582;DHT22;10952;50.836;4.348;2022-12-07T15:10:59;7.00;99.90
21582;DHT22;10952;50.836;4.348;2022-12-07T15:13:24;7.10;99.90
21582;DHT22;10952;50.836;4.348;2022-12-07T15:16:18;7.20;99.90
21582;DHT22;10952;50.836;4.348;2022-12-07T15:18:44;7.30;99.90
21582;DHT22;10952;50.836;4.348;2022-12-07T15:21:13;7.30;99.90
21582;DHT22;10952;50.836;4.348;2022-12-07T15:23:39;7.40;99.90
21582;DHT22;10952;50.836;4.348;2022-12-07T15:26:05;7.40;99.90
21582;DHT22;10952;50.836;4.348;2022-12-07T15:28:31;7.40;99.90
21582;DHT22;10952;50.836;4.348;2022-12-07T15:30:56;7.40;99.90
21582;DHT22;10952;50.836;4.348;2022-12-07T15:33:23;7.40;99.90
21582;DHT22;10952;50.836;4.348;2022-12-07T15:35:49;7.40;99.90
21582;DHT22;10952;50.836;4.348;2022-12-07T15:38:14;7.50;99.90
21582;DHT22;10952;50.836;4.348;2022-12-07T15:40:40;7.40;99.90
21582;DHT22;10952;50.836;4.348;2022-12-07T15:43:08;7.30;99.90
21582;DHT22;10952;50.836;4.348;2022-12-07T15:45:54;7.30;99.90
21582;DHT22;10952;50.836;4.348;2022-12-07T15:48:20;7.20;99.90
21582;DHT22;10952;50.836;4.348;2022-12-07T15:50:46;7.20;99.90
21582;DHT22;10952;50.836;4.348;2022-12-07T15:53:11;7.20;99.90
21582;DHT22;10952;50.836;4.348;2022-12-07T15:55:40;7.20;99.90
21582;DHT22;10952;50.836;4.348;2022-12-07T15:58:06;7.30;99.90
21582;DHT22;10952;50.836;4.348;2022-12-07T16:00:32;7.20;99.90
21582;DHT22;10952;50.836;4.348;2022-12-07T16:02:58;7.20;99.90
21582;DHT22;10952;50.836;4.348;2022-12-07T16:05:23;7.10;99.90
21582;DHT22;10952;50.836;4.348;2022-12-07T16:07:50;7.20;99.90
21582;DHT22;10952;50.836;4.348;2022-12-07T16:10:16;7.30;99.90
21582;DHT22;10952;50.836;4.348;2022-12-07T16:12:42;7.30;99.90
21582;DHT22;10952;50.836;4.348;2022-12-07T16:15:07;7.20;99.90
21582;DHT22;10952;50.836;4.348;2022-12-07T16:17:33;7.10;99.90
21582;DHT22;10952;50.836;4.348;2022-12-07T16:19:59;7.10;99.90
21582;DHT22;10952;50.836;4.348;2022-12-07T16:22:27;7.10;99.90
21582;DHT22;10952;50.836;4.348;2022-12-07T16:24:53;7.30;99.90
21582;DHT22;10952;50.836;4.348;2022-12-07T16:27:18;7.30;99.90
21582;DHT22;10952;50.836;4.348;2022-12-07T16:29:44;7.20;99.90
21582;DHT22;10952;50.836;4.348;2022-12-07T16:32:10;7.20;99.90
21582;DHT22;10952;50.836;4.348;2022-12-07T16:34:36;7.20;99.90
21582;DHT22;10952;50.836;4.348;2022-12-07T16:37:02;7.30;99.90
21582;DHT22;10952;50.836;4.348;2022-12-07T16:39:27;7.30;99.90
21582;DHT22;10952;50.836;4.348;2022-12-07T16:41:53;7.40;99.90
21582;DHT22;10952;50.836;4.348;2022-12-07T16:44:19;7.40;99.90
21582;DHT22;10952;50.836;4.348;2022-12-07T16:46:44;7.30;99.90
21582;DHT22;10952;50.836;4.348;2022-12-07T16:49:14;7.20;99.90
21582;DHT22;10952;50.836;4.348;2022-12-07T16:51:41;7.40;99.90
21582;DHT22;10952;50.836;4.348;2022-12-07T16:54:10;7.40;99.90
21582;DHT22;10952;50.836;4.348;2022-12-07T16:56:37;7.40;99.90
21582;DHT22;10952;50.836;4.348;2022-12-07T16:59:02;7.40;99.90
21582;DHT22;10952;50.836;4.348;2022-12-07T17:01:28;7.60;99.90
21582;DHT22;10952;50.836;4.348;2022-12-07T17:03:57;7.70;99.90
21582;DHT22;10952;50.836;4.348;2022-12-07T17:06:25;7.60;99.90
21582;DHT22;10952;50.836;4.348;2022-12-07T17:08:51;7.60;99.90
21582;DHT22;10952;50.836;4.348;2022-12-07T17:11:24;7.50;99.90
21582;DHT22;10952;50.836;4.348;2022-12-07T17:13:51;7.40;99.90
21582;DHT22;10952;50.836;4.348;2022-12-07T17:16:37;7.40;99.90
21582;DHT22;10952;50.836;4.348;2022-12-07T17:19:11;7.50;99.90
21582;DHT22;10952;50.836;4.348;2022-12-07T17:21:38;7.60;99.90
21582;DHT22;10952;50.836;4.348;2022-12-07T17:24:06;7.60;99.90
21582;DHT22;10952;50.836;4.348;2022-12-07T17:26:33;7.50;99.90
21582;DHT22;10952;50.836;4.348;2022-12-07T17:29:00;7.50;99.90
21582;DHT22;10952;50.836;4.348;2022-12-07T17:31:27;7.30;99.90
21582;DHT22;10952;50.836;4.348;2022-12-07T17:33:53;7.40;99.90
21582;DHT22;10952;50.836;4.348;2022-12-07T17:36:22;7.40;99.90
21582;DHT22;10952;50.836;4.348;2022-12-07T17:38:49;7.20;99.90
21582;DHT22;10952;50.836;4.348;2022-12-07T17:41:23;7.10;99.90
21582;DHT22;10952;50.836;4.348;2022-12-07T17:44:10;6.90;99.90
21582;DHT22;10952;50.836;4.348;2022-12-07T17:46:37;7.00;99.90
21582;DHT22;10952;50.836;4.348;2022-12-07T17:49:03;7.00;99.90
21582;DHT22;10952;50.836;4.348;2022-12-07T17:51:29;6.90;99.90
21582;DHT22;10952;50.836;4.348;2022-12-07T17:54:14;7.00;99.90
21582;DHT22;10952;50.836;4.348;2022-12-07T17:56:40;7.10;99.90
21582;DHT22;10952;50.836;4.348;2022-12-07T17:59:06;7.20;99.90
21582;DHT22;10952;50.836;4.348;2022-12-07T18:01:32;7.30;99.90
21582;DHT22;10952;50.836;4.348;2022-12-07T18:03:58;7.40;99.90
21582;DHT22;10952;50.836;4.348;2022-12-07T18:06:24;7.40;99.90